sensor_id;sensor_type;location;lat;lon;timestamp;temperature;humidity
4207;DHT22;2117;47.972;7.830;2023-04-21T00:00:19;4.00;99.90
4207;DHT22;2117;47.972;7.830;2023-04-21T00:02:44;4.00;99.90
4207;DHT22;2117;47.972;7.830;2023-04-21T00:05:11;4.10;99.90
4207;DHT22;2117;47.972;7.830;2023-04-21T00:07:38;4.10;99.90
4207;DHT22;2117;47.972;7.830;2023-04-21T00:10:09;4.00;99.90
4207;DHT22;2117;47.972;7.830;2023-04-21T00:12:34;4.00;99.90
4207;DHT22;2117;47.972;7.830;2023-04-21T00:15:00;4.00;99.90
4207;DHT22;2117;47.972;7.830;2023-04-21T00:17:26;3.90;99.90
4207;DHT22;2117;47.972;7.830;2023-04-21T00:19:52;3.90;99.90
4207;DHT22;2117;47.972;7.830;2023-04-21T00:22:17;4.00;99.90
4207;DHT22;2117;47.972;7.830;2023-04-21T00:24:43;3.90;99.90
4207;DHT22;2117;47.972;7.830;2023-04-21T00:27:09;3.90;99.90
4207;DHT22;2117;47.972;7.830;2023-04-21T00:29:36;3.90;99.90
4207;DHT22;2117;47.972;7.830;2023-04-21T00:32:01;3.90;99.90
4207;DHT22;2117;47.972;7.830;2023-04-21T00:34:28;3.90;99.90
4207;DHT22;2117;47.972;7.830;2023-04-21T00:36:53;3.90;99.90
4207;DHT22;2117;47.972;7.830;2023-04-21T00:39:19;3.80;99.90
4207;DHT22;2117;47.972;7.830;2023-04-21T00:41:45;3.70;99.90
4207;DHT22;2117;47.972;7.830;2023-04-21T00:44:10;3.80;99.90
4207;DHT22;2117;47.972;7.830;2023-04-21T00:46:36;3.80;99.90
4207;DHT22;2117;47.972;7.830;2023-04-21T00:49:04;3.80;99.90
4207;DHT22;2117;47.972;7.830;2023-04-21T00:51:32;3.70;99.90
4207;DHT22;2117;47.972;7.830;2023-04-21T00:53:59;3.70;99.90
4207;DHT22;2117;47.972;7.830;2023-04-21T00:56:27;3.60;99.90
4207;DHT22;2117;47.972;7.830;2023-04-21T00:58:57;3.60;99.90
4207;DHT22;2117;47.972;7.830;2023-04-21T01:01:23;3.60;99.90
4207;DHT22;2117;47.972;7.830;2023-04-21T01:03:49;3.60;99.90
4207;DHT22;2117;47.972;7.830;2023-04-21T01:06:16;3.60;99.90
4207;DHT22;2117;47.972;7.830;2023-04-21T01:08:42;3.60;99.90
4207;DHT22;2117;47.972;7.830;2023-04-21T01:11:13;3.50;99.90
4207;DHT22;2117;47.972;7.830;2023-04-21T01:13:39;3.50;99.90
4207;DHT22;2117;47.972;7.830;2023-04-21T01:16:06;3.50;99.90
4207;DHT22;2117;47.972;7.830;2023-04-21T01:18:33;3.40;99.90
4207;DHT22;2117;47.972;7.830;2023-04-21T01:20:58;3.40;99.90
4207;DHT22;2117;47.972;7.830;2023-04-21T01:23:24;3.40;99.90
4207;DHT22;2117;47.972;7.830;2023-04-21T01:25:51;3.40;99.90
4207;DHT22;2117;47.972;7.830;2023-04-21T01:28:26;3.40;99.90
4207;DHT22;2117;47.972;7.830;2023-04-21T01:30:51;3.40;99.90
4207;DHT22;2117;47.972;7.830;2023-04-21T01:33:18;3.30;99.90
4207;DHT22;2117;47.972;7.830;2023-04-21T01:35:44;3.40;99.90
4207;DHT22;2117;47.972;7.830;2023-04-21T01:38:10;3.40;99.90
4207;DHT22;2117;47.972;7.830;2023-04-21T01:40:36;3.40;99.90
4207;DHT22;2117;47.972;7.830;2023-04-21T01:43:02;3.30;99.90
4207;DHT22;2117;47.972;7.830;2023-04-21T01:45:29;3.30;99.90
4207;DHT22;2117;47.972;7.830;2023-04-21T01:47:54;3.20;99.90
4207;DHT22;2117;47.972;7.830;2023-04-21T01:50:20;3.30;99.90
4207;DHT22;2117;47.972;7.830;2023-04-21T01:52:45;3.30;99.90
4207;DHT22;2117;47.972;7.830;2023-04-21T01:55:11;3.30;99.90
4207;DHT22;2117;47.972;7.830;2023-04-21T01:57:37;3.30;99.90
4207;DHT22;2117;47.972;7.830;2023-04-21T02:00:03;3.30;99.90
4207;DHT22;2117;47.972;7.830;2023-04-21T02:02:29;3.20;99.90
4207;DHT22;2117;47.972;7.830;2023-04-21T02:04:54;3.20;99.90
4207;DHT22;2117;47.972;7.830;2023-04-21T02:07:20;3.20;99.90
4207;DHT22;2117;47.972;7.830;2023-04-21T02:09:45;3.30;99.90
4207;DHT22;2117;47.972;7.830;2023-04-21T02:12:11;3.30;99.90
4207;DHT22;2117;47.972;7.830;2023-04-21T02:14:37;3.20;99.90
4207;DHT22;2117;47.972;7.830;2023-04-21T02:17:03;3.20;99.90
4207;DHT22;2117;47.972;7.830;2023-04-21T02:19:28;3.20;99.90
4207;DHT22;2117;47.972;7.830;2023-04-21T02:21:54;3.20;99.90
4207;DHT22;2117;47.972;7.830;2023-04-21T02:24:20;3.20;99.90
4207;DHT22;2117;47.972;7.830;2023-04-21T02:26:46;3.20;99.90
4207;DHT22;2117;47.972;7.830;2023-04-21T02:29:12;3.10;99.90
4207;DHT22;2117;47.972;7.830;2023-04-21T02:31:38;3.10;99.90
4207;DHT22;2117;47.972;7.830;2023-04-21T02:34:03;3.10;99.90
4207;DHT22;2117;47.972;7.830;2023-04-21T02:36:29;3.10;99.90
4207;DHT22;2117;47.972;7.830;2023-04-21T02:38:55;3.10;99.90
4207;DHT22;2117;47.972;7.830;2023-04-21T02:41:21;3.10;99.90
4207;DHT22;2117;47.972;7.830;2023-04-21T02:43:47;3.00;99.90
4207;DHT22;2117;47.972;7.830;2023-04-21T02:46:13;3.00;99.90
4207;DHT22;2117;47.972;7.830;2023-04-21T02:48:39;3.00;99.90
4207;DHT22;2117;47.972;7.830;2023-04-21T02:51:13;2.80;99.90
4207;DHT22;2117;47.972;7.830;2023-04-21T02:53:40;2.80;99.90
4207;DHT22;2117;47.972;7.830;2023-04-21T02:56:09;2.80;99.90
4207;DHT22;2117;47.972;7.830;2023-04-21T02:58:35;2.80;99.90
4207;DHT22;2117;47.972;7.830;2023-04-21T03:01:01;2.70;99.90
4207;DHT22;2117;47.972;7.830;2023-04-21T03:03:28;2.70;99.90
4207;DHT22;2117;47.972;7.830;2023-04-21T03:05:58;2.60;99.90
4207;DHT22;2117;47.972;7.830;2023-04-21T03:08:23;2.70;99.90
4207;DHT22;2117;47.972;7.830;2023-04-21T03:10:49;2.80;99.90
4207;DHT22;2117;47.972;7.830;2023-04-21T03:13:15;2.70;99.90
4207;DHT22;2117;47.972;7.830;2023-04-21T03:15:41;2.70;99.90
4207;DHT22;2117;47.972;7.830;2023-04-21T03:18:06;2.70;99.90
4207;DHT22;2117;47.972;7.830;2023-04-21T03:20:32;2.60;99.90
4207;DHT22;2117;47.972;7.830;2023-04-21T03:22:57;2.60;99.90
4207;DHT22;2117;47.972;7.830;2023-04-21T03:25:23;2.70;99.90
4207;DHT22;2117;47.972;7.830;2023-04-21T03:27:49;2.60;99.90
4207;DHT22;2117;47.972;7.830;2023-04-21T03:30:14;2.60;99.90
4207;DHT22;2117;47.972;7.830;2023-04-21T03:32:40;2.60;99.90
4207;DHT22;2117;47.972;7.830;2023-04-21T03:35:05;2.60;99.90
4207;DHT22;2117;47.972;7.830;2023-04-21T03:37:31;2.60;99.90
4207;DHT22;2117;47.972;7.830;2023-04-21T03:39:57;2.50;99.90
4207;DHT22;2117;47.972;7.830;2023-04-21T03:42:22;2.50;99.90
4207;DHT22;2117;47.972;7.830;2023-04-21T03:44:48;2.60;99.90
4207;DHT22;2117;47.972;7.830;2023-04-21T03:47:15;2.60;99.90
4207;DHT22;2117;47.972;7.830;2023-04-21T03:49:41;2.60;99.90
4207;DHT22;2117;47.972;7.830;2023-04-21T03:52:07;2.60;99.90
4207;DHT22;2117;47.972;7.830;2023-04-21T03:54:32;2.60;99.90
4207;DHT22;2117;47.972;7.830;2023-04-21T03:56:58;2.60;99.90
4207;DHT22;2117;47.972;7.830;2023-04-21T03:59:23;2.60;99.90
4207;DHT22;2117;47.972;7.830;2023-04-21T04:01:49;2.50;99.90
4207;DHT22;2117;47.972;7.830;2023-04-21T04:04:15;2.60;99.90
4207;DHT22;2117;47.972;7.830;2023-04-21T04:06:40;2.50;99.90
4207;DHT22;2117;47.972;7.830;2023-04-21T04:09:06;2.40;99.90
4207;DHT22;2117;47.972;7.830;2023-04-21T04:11:33;2.40;99.90
4207;DHT22;2117;47.972;7.830;2023-04-21T04:13:59;2.50;99.90
4207;DHT22;2117;47.972;7.830;2023-04-21T04:16:24;2.50;99.90
4207;DHT22;2117;47.972;7.830;2023-04-21T04:18:50;2.50;99.90
4207;DHT22;2117;47.972;7.830;2023-04-21T04:21:16;2.50;99.90
4207;DHT22;2117;47.972;7.830;2023-04-21T04:23:41;2.50;99.90
4207;DHT22;2117;47.972;7.830;2023-04-21T04:26:07;2.50;99.90
4207;DHT22;2117;47.972;7.830;2023-04-21T04:28:33;2.50;99.90
4207;DHT22;2117;47.972;7.830;2023-04-21T04:30:59;2.60;99.90
4207;DHT22;2117;47.972;7.830;2023-04-21T04:33:25;2.50;99.90
4207;DHT22;2117;47.972;7.830;2023-04-21T04:35:51;2.50;99.90
4207;DHT22;2117;47.972;7.830;2023-04-21T04:38:17;2.50;99.90
4207;DHT22;2117;47.972;7.830;2023-04-21T04:40:42;2.50;99.90
4207;DHT22;2117;47.972;7.830;2023-04-21T04:43:08;2.50;99.90
4207;DHT22;2117;47.972;7.830;2023-04-21T04:45:35;2.50;99.90
4207;DHT22;2117;47.972;7.830;2023-04-21T04:48:02;2.50;99.90
4207;DHT22;2117;47.972;7.830;2023-04-21T04:50:28;2.60;99.90
4207;DHT22;2117;47.972;7.830;2023-04-21T04:52:54;2.50;99.90
4207;DHT22;2117;47.972;7.830;2023-04-21T04:55:20;2.50;99.90
4207;DHT22;2117;47.972;7.830;2023-04-21T04:57:46;2.50;99.90
4207;DHT22;2117;47.972;7.830;2023-04-21T05:00:12;2.50;99.90
4207;DHT22;2117;47.972;7.830;2023-04-21T05:02:39;2.40;99.90
4207;DHT22;2117;47.972;7.830;2023-04-21T05:05:05;2.50;99.90
4207;DHT22;2117;47.972;7.830;2023-04-21T05:07:31;2.50;99.90
4207;DHT22;2117;47.972;7.830;2023-04-21T05:09:57;2.50;99.90
4207;DHT22;2117;47.972;7.830;2023-04-21T05:12:23;2.60;99.90
4207;DHT22;2117;47.972;7.830;2023-04-21T05:14:48;2.60;99.90
4207;DHT22;2117;47.972;7.830;2023-04-21T05:17:14;2.60;99.90
4207;DHT22;2117;47.972;7.830;2023-04-21T05:19:39;2.60;99.90
4207;DHT22;2117;47.972;7.830;2023-04-21T05:22:05;2.60;99.90
4207;DHT22;2117;47.972;7.830;2023-04-21T05:24:32;2.70;99.90
4207;DHT22;2117;47.972;7.830;2023-04-21T05:26:57;2.70;99.90
4207;DHT22;2117;47.972;7.830;2023-04-21T05:29:23;2.80;99.90
4207;DHT22;2117;47.972;7.830;2023-04-21T05:31:48;2.80;99.90
4207;DHT22;2117;47.972;7.830;2023-04-21T05:34:14;2.80;99.90
4207;DHT22;2117;47.972;7.830;2023-04-21T05:36:40;2.80;99.90
4207;DHT22;2117;47.972;7.830;2023-04-21T05:39:06;2.90;99.90
4207;DHT22;2117;47.972;7.830;2023-04-21T05:41:32;3.00;99.90
4207;DHT22;2117;47.972;7.830;2023-04-21T05:43:57;3.00;99.90
4207;DHT22;2117;47.972;7.830;2023-04-21T05:46:23;3.00;99.90
4207;DHT22;2117;47.972;7.830;2023-04-21T05:48:49;3.10;99.90
4207;DHT22;2117;47.972;7.830;2023-04-21T05:51:14;3.20;99.90
4207;DHT22;2117;47.972;7.830;2023-04-21T05:53:41;3.20;99.90
4207;DHT22;2117;47.972;7.830;2023-04-21T05:56:10;3.30;99.90
4207;DHT22;2117;47.972;7.830;2023-04-21T05:58:37;3.30;99.90
4207;DHT22;2117;47.972;7.830;2023-04-21T06:01:03;3.40;99.90
4207;DHT22;2117;47.972;7.830;2023-04-21T06:03:32;3.40;99.90
4207;DHT22;2117;47.972;7.830;2023-04-21T06:05:59;3.50;99.90
4207;DHT22;2117;47.972;7.830;2023-04-21T06:08:25;3.60;99.90
4207;DHT22;2117;47.972;7.830;2023-04-21T06:10:51;3.70;99.90
4207;DHT22;2117;47.972;7.830;2023-04-21T06:13:16;3.70;99.90
4207;DHT22;2117;47.972;7.830;2023-04-21T06:15:42;3.70;99.90
4207;DHT22;2117;47.972;7.830;2023-04-21T06:18:07;3.90;99.90
4207;DHT22;2117;47.972;7.830;2023-04-21T06:20:33;3.90;99.90
4207;DHT22;2117;47.972;7.830;2023-04-21T06:22:59;4.00;99.90
4207;DHT22;2117;47.972;7.830;2023-04-21T06:25:24;4.10;99.90
4207;DHT22;2117;47.972;7.830;2023-04-21T06:27:50;4.20;99.90
4207;DHT22;2117;47.972;7.830;2023-04-21T06:30:15;4.30;99.90
4207;DHT22;2117;47.972;7.830;2023-04-21T06:32:42;4.40;99.90
4207;DHT22;2117;47.972;7.830;2023-04-21T06:35:10;4.50;99.90
4207;DHT22;2117;47.972;7.830;2023-04-21T06:37:36;4.60;99.90
4207;DHT22;2117;47.972;7.830;2023-04-21T06:40:02;4.60;99.90
4207;DHT22;2117;47.972;7.830;2023-04-21T06:42:27;4.70;99.90
4207;DHT22;2117;47.972;7.830;2023-04-21T06:44:53;4.80;99.90
4207;DHT22;2117;47.972;7.830;2023-04-21T06:47:20;4.90;99.90
4207;DHT22;2117;47.972;7.830;2023-04-21T06:49:45;5.00;99.90
4207;DHT22;2117;47.972;7.830;2023-04-21T06:52:11;5.10;99.90
4207;DHT22;2117;47.972;7.830;2023-04-21T06:54:37;5.10;99.90
4207;DHT22;2117;47.972;7.830;2023-04-21T06:57:02;5.30;99.90
4207;DHT22;2117;47.972;7.830;2023-04-21T06:59:28;5.40;99.90
4207;DHT22;2117;47.972;7.830;2023-04-21T07:01:53;5.50;99.90
4207;DHT22;2117;47.972;7.830;2023-04-21T07:04:19;5.50;99.90
4207;DHT22;2117;47.972;7.830;2023-04-21T07:06:45;5.60;99.90
4207;DHT22;2117;47.972;7.830;2023-04-21T07:09:11;5.70;99.90
4207;DHT22;2117;47.972;7.830;2023-04-21T07:11:37;5.80;99.90
4207;DHT22;2117;47.972;7.830;2023-04-21T07:14:02;5.90;99.90
4207;DHT22;2117;47.972;7.830;2023-04-21T07:16:28;5.90;99.90
4207;DHT22;2117;47.972;7.830;2023-04-21T07:18:54;6.00;99.90
4207;DHT22;2117;47.972;7.830;2023-04-21T07:21:20;6.10;99.90
4207;DHT22;2117;47.972;7.830;2023-04-21T07:23:45;6.10;99.90
4207;DHT22;2117;47.972;7.830;2023-04-21T07:26:11;6.30;99.90
4207;DHT22;2117;47.972;7.830;2023-04-21T07:28:37;6.40;99.90
4207;DHT22;2117;47.972;7.830;2023-04-21T07:31:04;6.60;99.90
4207;DHT22;2117;47.972;7.830;2023-04-21T07:33:30;6.60;99.90
4207;DHT22;2117;47.972;7.830;2023-04-21T07:35:55;6.70;99.90
4207;DHT22;2117;47.972;7.830;2023-04-21T07:38:21;6.80;99.90
4207;DHT22;2117;47.972;7.830;2023-04-21T07:40:46;7.00;99.90
4207;DHT22;2117;47.972;7.830;2023-04-21T07:43:12;7.00;99.90
4207;DHT22;2117;47.972;7.830;2023-04-21T07:45:37;7.00;99.90
4207;DHT22;2117;47.972;7.830;2023-04-21T07:48:03;7.10;99.90
4207;DHT22;2117;47.972;7.830;2023-04-21T07:50:32;7.10;99.90
4207;DHT22;2117;47.972;7.830;2023-04-21T07:52:57;7.20;99.90
4207;DHT22;2117;47.972;7.830;2023-04-21T07:55:23;7.30;99.90
4207;DHT22;2117;47.972;7.830;2023-04-21T07:57:49;7.40;99.90
4207;DHT22;2117;47.972;7.830;2023-04-21T08:00:15;7.50;99.90
4207;DHT22;2117;47.972;7.830;2023-04-21T08:02:40;7.50;99.90
4207;DHT22;2117;47.972;7.830;2023-04-21T08:05:06;7.60;99.90
4207;DHT22;2117;47.972;7.830;2023-04-21T08:07:32;7.70;99.90
4207;DHT22;2117;47.972;7.830;2023-04-21T08:09:58;7.70;99.90
4207;DHT22;2117;47.972;7.830;2023-04-21T08:12:25;7.80;99.90
4207;DHT22;2117;47.972;7.830;2023-04-21T08:14:50;7.80;99.90
4207;DHT22;2117;47.972;7.830;2023-04-21T08:17:16;7.90;99.90
4207;DHT22;2117;47.972;7.830;2023-04-21T08:19:42;8.00;99.90
4207;DHT22;2117;47.972;7.830;2023-04-21T08:22:08;8.10;99.90
4207;DHT22;2117;47.972;7.830;2023-04-21T08:24:34;8.20;99.90
4207;DHT22;2117;47.972;7.830;2023-04-21T08:26:59;8.30;99.90
4207;DHT22;2117;47.972;7.830;2023-04-21T08:29:26;8.40;99.90
4207;DHT22;2117;47.972;7.830;2023-04-21T08:31:52;8.40;99.90
4207;DHT22;2117;47.972;7.830;2023-04-21T08:34:18;8.50;99.90
4207;DHT22;2117;47.972;7.830;2023-04-21T08:36:44;8.60;99.90
4207;DHT22;2117;47.972;7.830;2023-04-21T08:39:11;8.60;99.90
4207;DHT22;2117;47.972;7.830;2023-04-21T08:41:38;8.80;99.90
4207;DHT22;2117;47.972;7.830;2023-04-21T08:44:05;8.80;99.90
4207;DHT22;2117;47.972;7.830;2023-04-21T08:46:31;8.90;99.90
4207;DHT22;2117;47.972;7.830;2023-04-21T08:48:57;9.00;99.90
4207;DHT22;2117;47.972;7.830;2023-04-21T08:51:26;9.10;99.90
4207;DHT22;2117;47.972;7.830;2023-04-21T08:53:53;9.10;99.90
4207;DHT22;2117;47.972;7.830;2023-04-21T08:56:19;9.20;99.90
4207;DHT22;2117;47.972;7.830;2023-04-21T08:58:45;9.40;99.90
4207;DHT22;2117;47.972;7.830;2023-04-21T09:01:10;9.40;99.90
4207;DHT22;2117;47.972;7.830;2023-04-21T09:03:36;9.40;99.90
4207;DHT22;2117;47.972;7.830;2023-04-21T09:06:04;9.40;99.90
4207;DHT22;2117;47.972;7.830;2023-04-21T09:08:31;9.50;99.90
4207;DHT22;2117;47.972;7.830;2023-04-21T09:10:57;9.80;99.90
4207;DHT22;2117;47.972;7.830;2023-04-21T09:13:32;9.70;99.90
4207;DHT22;2117;47.972;7.830;2023-04-21T09:15:59;9.90;99.90
4207;DHT22;2117;47.972;7.830;2023-04-21T09:18:29;10.00;99.90
4207;DHT22;2117;47.972;7.830;2023-04-21T09:21:12;10.20;99.90
4207;DHT22;2117;47.972;7.830;2023-04-21T09:26:07;10.30;99.90
4207;DHT22;2117;47.972;7.830;2023-04-21T09:28:33;10.30;99.90
4207;DHT22;2117;47.972;7.830;2023-04-21T09:30:58;10.30;99.90
4207;DHT22;2117;47.972;7.830;2023-04-21T09:33:24;10.30;99.90
4207;DHT22;2117;47.972;7.830;2023-04-21T09:35:51;10.40;99.90
4207;DHT22;2117;47.972;7.830;2023-04-21T09:38:21;10.50;99.90
4207;DHT22;2117;47.972;7.830;2023-04-21T09:40:56;10.80;99.90
4207;DHT22;2117;47.972;7.830;2023-04-21T09:43:22;10.80;99.90
4207;DHT22;2117;47.972;7.830;2023-04-21T09:45:48;10.90;99.90
4207;DHT22;2117;47.972;7.830;2023-04-21T09:48:16;11.00;99.90
4207;DHT22;2117;47.972;7.830;2023-04-21T09:50:42;11.00;99.90
4207;DHT22;2117;47.972;7.830;2023-04-21T09:53:12;11.10;99.90
4207;DHT22;2117;47.972;7.830;2023-04-21T09:55:41;11.30;99.90
4207;DHT22;2117;47.972;7.830;2023-04-21T09:58:07;11.30;99.90
4207;DHT22;2117;47.972;7.830;2023-04-21T10:00:35;11.40;99.90
4207;DHT22;2117;47.972;7.830;2023-04-21T10:03:04;11.50;99.90
4207;DHT22;2117;47.972;7.830;2023-04-21T10:05:35;11.80;99.90
4207;DHT22;2117;47.972;7.830;2023-04-21T10:08:00;11.80;99.90
4207;DHT22;2117;47.972;7.830;2023-04-21T10:10:28;11.90;99.90
4207;DHT22;2117;47.972;7.830;2023-04-21T10:12:56;11.90;99.90
4207;DHT22;2117;47.972;7.830;2023-04-21T10:15:38;12.10;99.90
4207;DHT22;2117;47.972;7.830;2023-04-21T10:18:14;12.10;99.90
4207;DHT22;2117;47.972;7.830;2023-04-21T10:20:54;12.10;99.90
4207;DHT22;2117;47.972;7.830;2023-04-21T10:26:18;12.10;99.90
4207;DHT22;2117;47.972;7.830;2023-04-21T10:29:03;12.10;99.90
4207;DHT22;2117;47.972;7.830;2023-04-21T10:31:51;12.30;99.90
4207;DHT22;2117;47.972;7.830;2023-04-21T10:34:27;12.60;99.90
4207;DHT22;2117;47.972;7.830;2023-04-21T10:39:33;13.10;99.90
4207;DHT22;2117;47.972;7.830;2023-04-21T10:44:42;13.40;99.90
4207;DHT22;2117;47.972;7.830;2023-04-21T10:47:08;13.40;99.90
4207;DHT22;2117;47.972;7.830;2023-04-21T10:49:37;13.60;99.90
4207;DHT22;2117;47.972;7.830;2023-04-21T10:52:07;13.80;99.90
4207;DHT22;2117;47.972;7.830;2023-04-21T10:55:04;17.70;99.90
4207;DHT22;2117;47.972;7.830;2023-04-21T10:57:34;14.20;99.90
4207;DHT22;2117;47.972;7.830;2023-04-21T11:00:00;14.40;99.90
4207;DHT22;2117;47.972;7.830;2023-04-21T11:02:26;14.30;99.90
4207;DHT22;2117;47.972;7.830;2023-04-21T11:04:52;14.50;99.90
4207;DHT22;2117;47.972;7.830;2023-04-21T11:07:22;14.60;99.90
4207;DHT22;2117;47.972;7.830;2023-04-21T11:09:56;15.00;99.90
4207;DHT22;2117;47.972;7.830;2023-04-21T11:12:26;15.20;99.90
4207;DHT22;2117;47.972;7.830;2023-04-21T11:14:53;14.90;99.90
4207;DHT22;2117;47.972;7.830;2023-04-21T11:17:19;14.80;99.90
4207;DHT22;2117;47.972;7.830;2023-04-21T11:19:52;14.80;99.90
4207;DHT22;2117;47.972;7.830;2023-04-21T11:22:19;14.80;99.90
4207;DHT22;2117;47.972;7.830;2023-04-21T11:24:46;15.10;99.90
4207;DHT22;2117;47.972;7.830;2023-04-21T11:27:12;15.20;99.90
4207;DHT22;2117;47.972;7.830;2023-04-21T11:29:39;15.80;99.90
4207;DHT22;2117;47.972;7.830;2023-04-21T11:32:06;16.50;99.90
4207;DHT22;2117;47.972;7.830;2023-04-21T11:34:32;17.10;99.90
4207;DHT22;2117;47.972;7.830;2023-04-21T11:36:58;17.10;99.90
4207;DHT22;2117;47.972;7.830;2023-04-21T11:39:24;17.40;99.90
4207;DHT22;2117;47.972;7.830;2023-04-21T11:41:50;17.80;99.90
4207;DHT22;2117;47.972;7.830;2023-04-21T11:44:35;18.10;99.90
4207;DHT22;2117;47.972;7.830;2023-04-21T11:47:21;18.10;99.90
4207;DHT22;2117;47.972;7.830;2023-04-21T11:49:53;18.40;99.90
4207;DHT22;2117;47.972;7.830;2023-04-21T11:52:29;18.60;99.90
4207;DHT22;2117;47.972;7.830;2023-04-21T11:54:59;19.10;99.90
4207;DHT22;2117;47.972;7.830;2023-04-21T11:57:26;19.10;99.90
4207;DHT22;2117;47.972;7.830;2023-04-21T11:59:53;18.90;99.90
4207;DHT22;2117;47.972;7.830;2023-04-21T12:02:23;18.90;99.90
4207;DHT22;2117;47.972;7.830;2023-04-21T12:05:06;18.90;99.90
4207;DHT22;2117;47.972;7.830;2023-04-21T12:07:34;18.80;99.90
4207;DHT22;2117;47.972;7.830;2023-04-21T12:10:00;18.70;99.90
4207;DHT22;2117;47.972;7.830;2023-04-21T12:12:28;18.70;99.90
4207;DHT22;2117;47.972;7.830;2023-04-21T12:14:54;18.70;99.90
4207;DHT22;2117;47.972;7.830;2023-04-21T12:17:19;18.60;99.90
4207;DHT22;2117;47.972;7.830;2023-04-21T12:19:45;18.40;99.90
4207;DHT22;2117;47.972;7.830;2023-04-21T12:22:17;17.80;99.90
4207;DHT22;2117;47.972;7.830;2023-04-21T12:24:43;17.50;99.90
4207;DHT22;2117;47.972;7.830;2023-04-21T12:27:10;17.50;99.90
4207;DHT22;2117;47.972;7.830;2023-04-21T12:29:36;16.80;99.90
4207;DHT22;2117;47.972;7.830;2023-04-21T12:32:04;16.20;99.90
4207;DHT22;2117;47.972;7.830;2023-04-21T12:34:29;16.10;99.90
4207;DHT22;2117;47.972;7.830;2023-04-21T12:36:55;16.10;99.90
4207;DHT22;2117;47.972;7.830;2023-04-21T12:39:20;15.80;99.90
4207;DHT22;2117;47.972;7.830;2023-04-21T12:41:47;15.60;99.90
4207;DHT22;2117;47.972;7.830;2023-04-21T12:44:13;15.60;99.90
4207;DHT22;2117;47.972;7.830;2023-04-21T12:46:39;15.60;99.90
4207;DHT22;2117;47.972;7.830;2023-04-21T12:49:05;15.60;99.90
4207;DHT22;2117;47.972;7.830;2023-04-21T12:51:32;15.60;99.90
4207;DHT22;2117;47.972;7.830;2023-04-21T12:53:58;15.40;99.90
4207;DHT22;2117;47.972;7.830;2023-04-21T12:56:24;15.20;99.90
4207;DHT22;2117;47.972;7.830;2023-04-21T12:58:50;15.00;99.90
4207;DHT22;2117;47.972;7.830;2023-04-21T13:01:16;15.00;99.90
4207;DHT22;2117;47.972;7.830;2023-04-21T13:03:41;15.10;99.90
4207;DHT22;2117;47.972;7.830;2023-04-21T13:06:07;15.20;99.90
4207;DHT22;2117;47.972;7.830;2023-04-21T13:08:33;15.20;99.90
4207;DHT22;2117;47.972;7.830;2023-04-21T13:11:00;15.20;99.90
4207;DHT22;2117;47.972;7.830;2023-04-21T13:13:25;15.20;99.90
4207;DHT22;2117;47.972;7.830;2023-04-21T13:15:51;15.20;99.90
4207;DHT22;2117;47.972;7.830;2023-04-21T13:18:17;15.30;99.90
4207;DHT22;2117;47.972;7.830;2023-04-21T13:20:42;15.50;99.90
4207;DHT22;2117;47.972;7.830;2023-04-21T13:23:08;15.60;99.90
4207;DHT22;2117;47.972;7.830;2023-04-21T13:25:35;15.70;99.90
4207;DHT22;2117;47.972;7.830;2023-04-21T13:28:01;15.80;99.90
4207;DHT22;2117;47.972;7.830;2023-04-21T13:30:26;15.90;99.90
4207;DHT22;2117;47.972;7.830;2023-04-21T13:32:52;16.00;99.90
4207;DHT22;2117;47.972;7.830;2023-04-21T13:35:17;16.00;99.90
4207;DHT22;2117;47.972;7.830;2023-04-21T13:37:43;16.00;99.90
4207;DHT22;2117;47.972;7.830;2023-04-21T13:40:09;16.00;99.90
4207;DHT22;2117;47.972;7.830;2023-04-21T13:42:35;16.00;99.90
4207;DHT22;2117;47.972;7.830;2023-04-21T13:45:01;16.20;99.90
4207;DHT22;2117;47.972;7.830;2023-04-21T13:47:33;16.30;99.90
4207;DHT22;2117;47.972;7.830;2023-04-21T13:49:59;16.40;99.90
4207;DHT22;2117;47.972;7.830;2023-04-21T13:52:25;16.60;99.90
4207;DHT22;2117;47.972;7.830;2023-04-21T13:54:52;16.60;99.90
4207;DHT22;2117;47.972;7.830;2023-04-21T13:57:18;16.60;99.90
4207;DHT22;2117;47.972;7.830;2023-04-21T13:59:44;16.80;99.90
4207;DHT22;2117;47.972;7.830;2023-04-21T14:02:10;17.00;99.90
4207;DHT22;2117;47.972;7.830;2023-04-21T14:04:35;17.60;99.90
4207;DHT22;2117;47.972;7.830;2023-04-21T14:07:02;17.70;99.90
4207;DHT22;2117;47.972;7.830;2023-04-21T14:09:27;18.20;99.90
4207;DHT22;2117;47.972;7.830;2023-04-21T14:11:54;18.30;99.90
4207;DHT22;2117;47.972;7.830;2023-04-21T14:16:46;18.10;99.90
4207;DHT22;2117;47.972;7.830;2023-04-21T14:19:14;18.10;99.90
4207;DHT22;2117;47.972;7.830;2023-04-21T14:21:40;18.20;99.90
4207;DHT22;2117;47.972;7.830;2023-04-21T14:24:05;18.30;99.90
4207;DHT22;2117;47.972;7.830;2023-04-21T14:26:31;18.30;99.90
4207;DHT22;2117;47.972;7.830;2023-04-21T14:28:57;18.30;99.90
4207;DHT22;2117;47.972;7.830;2023-04-21T14:31:24;18.10;99.90
4207;DHT22;2117;47.972;7.830;2023-04-21T14:33:50;17.80;99.90
4207;DHT22;2117;47.972;7.830;2023-04-21T14:36:15;17.70;99.90
4207;DHT22;2117;47.972;7.830;2023-04-21T14:38:41;17.50;99.90
4207;DHT22;2117;47.972;7.830;2023-04-21T14:41:07;17.20;99.90
4207;DHT22;2117;47.972;7.830;2023-04-21T14:43:33;17.20;99.90
4207;DHT22;2117;47.972;7.830;2023-04-21T14:45:58;17.00;99.90
4207;DHT22;2117;47.972;7.830;2023-04-21T14:48:25;17.00;99.90
4207;DHT22;2117;47.972;7.830;2023-04-21T14:50:50;16.80;99.90
4207;DHT22;2117;47.972;7.830;2023-04-21T14:53:16;16.70;99.90
4207;DHT22;2117;47.972;7.830;2023-04-21T14:55:42;16.60;99.90
4207;DHT22;2117;47.972;7.830;2023-04-21T14:58:07;16.60;99.90
4207;DHT22;2117;47.972;7.830;2023-04-21T15:00:33;16.40;99.90
4207;DHT22;2117;47.972;7.830;2023-04-21T15:03:00;16.40;99.90
4207;DHT22;2117;47.972;7.830;2023-04-21T15:05:26;16.30;99.90
4207;DHT22;2117;47.972;7.830;2023-04-21T15:07:52;16.30;99.90
4207;DHT22;2117;47.972;7.830;2023-04-21T15:10:17;16.40;99.90
4207;DHT22;2117;47.972;7.830;2023-04-21T15:12:43;16.50;99.90
4207;DHT22;2117;47.972;7.830;2023-04-21T15:15:09;16.90;99.90
4207;DHT22;2117;47.972;7.830;2023-04-21T15:17:35;17.00;99.90
4207;DHT22;2117;47.972;7.830;2023-04-21T15:20:01;17.20;99.90
4207;DHT22;2117;47.972;7.830;2023-04-21T15:22:26;17.30;99.90
4207;DHT22;2117;47.972;7.830;2023-04-21T15:24:52;17.30;99.90
4207;DHT22;2117;47.972;7.830;2023-04-21T15:27:18;17.30;99.90
4207;DHT22;2117;47.972;7.830;2023-04-21T15:29:43;17.40;99.90
4207;DHT22;2117;47.972;7.830;2023-04-21T15:32:10;17.60;99.90
4207;DHT22;2117;47.972;7.830;2023-04-21T15:34:35;17.90;99.90
4207;DHT22;2117;47.972;7.830;2023-04-21T15:37:01;17.90;99.90
4207;DHT22;2117;47.972;7.830;2023-04-21T15:39:26;18.00;99.90
4207;DHT22;2117;47.972;7.830;2023-04-21T15:41:52;18.10;99.90
4207;DHT22;2117;47.972;7.830;2023-04-21T15:44:19;18.10;99.90
4207;DHT22;2117;47.972;7.830;2023-04-21T15:46:44;18.20;99.90
4207;DHT22;2117;47.972;7.830;2023-04-21T15:49:10;18.20;99.90
4207;DHT22;2117;47.972;7.830;2023-04-21T15:51:36;18.30;99.90
4207;DHT22;2117;47.972;7.830;2023-04-21T15:54:03;18.30;99.90
4207;DHT22;2117;47.972;7.830;2023-04-21T15:56:28;18.30;99.90
4207;DHT22;2117;47.972;7.830;2023-04-21T15:58:54;18.30;99.90
4207;DHT22;2117;47.972;7.830;2023-04-21T16:01:20;18.20;99.90
4207;DHT22;2117;47.972;7.830;2023-04-21T16:03:47;18.20;99.90
4207;DHT22;2117;47.972;7.830;2023-04-21T16:06:13;18.20;99.90
4207;DHT22;2117;47.972;7.830;2023-04-21T16:08:39;18.30;99.90
4207;DHT22;2117;47.972;7.830;2023-04-21T16:11:05;18.20;99.90
4207;DHT22;2117;47.972;7.830;2023-04-21T16:13:30;18.20;99.90
4207;DHT22;2117;47.972;7.830;2023-04-21T16:15:56;18.30;99.90
4207;DHT22;2117;47.972;7.830;2023-04-21T16:18:22;18.30;99.90
4207;DHT22;2117;47.972;7.830;2023-04-21T16:20:48;18.30;99.90